sensor_id;sensor_type;location;lat;lon;timestamp;temperature;humidity
67901;DHT22;54700;51.796;10.956;2022-12-10T00:01:33;-0.40;99.90
67901;DHT22;54700;51.796;10.956;2022-12-10T00:04:01;-0.40;99.90
67901;DHT22;54700;51.796;10.956;2022-12-10T00:06:30;-0.40;99.90
67901;DHT22;54700;51.796;10.956;2022-12-10T00:08:58;-0.30;99.90
67901;DHT22;54700;51.796;10.956;2022-12-10T00:11:25;-0.40;99.80
67901;DHT22;54700;51.796;10.956;2022-12-10T00:13:52;-0.40;99.80
67901;DHT22;54700;51.796;10.956;2022-12-10T00:16:20;-0.40;99.90
67901;DHT22;54700;51.796;10.956;2022-12-10T00:18:50;-0.40;99.90
67901;DHT22;54700;51.796;10.956;2022-12-10T00:21:18;-0.40;99.80
67901;DHT22;54700;51.796;10.956;2022-12-10T00:23:47;-0.40;99.60
67901;DHT22;54700;51.796;10.956;2022-12-10T00:26:14;-0.40;99.70
67901;DHT22;54700;51.796;10.956;2022-12-10T00:28:43;-0.40;99.80
67901;DHT22;54700;51.796;10.956;2022-12-10T00:31:10;-0.40;99.90
67901;DHT22;54700;51.796;10.956;2022-12-10T00:33:39;-0.40;99.50
67901;DHT22;54700;51.796;10.956;2022-12-10T00:36:10;-0.50;99.40
67901;DHT22;54700;51.796;10.956;2022-12-10T00:38:39;-0.50;99.40
67901;DHT22;54700;51.796;10.956;2022-12-10T00:41:07;-0.50;99.40
67901;DHT22;54700;51.796;10.956;2022-12-10T00:43:34;-0.50;99.20
67901;DHT22;54700;51.796;10.956;2022-12-10T00:46:01;-0.60;99.20
67901;DHT22;54700;51.796;10.956;2022-12-10T00:48:29;-0.60;99.20
67901;DHT22;54700;51.796;10.956;2022-12-10T00:50:57;-0.60;99.30
67901;DHT22;54700;51.796;10.956;2022-12-10T00:53:26;-0.60;99.40
67901;DHT22;54700;51.796;10.956;2022-12-10T00:55:54;-0.60;99.50
67901;DHT22;54700;51.796;10.956;2022-12-10T00:58:22;-0.50;99.30
67901;DHT22;54700;51.796;10.956;2022-12-10T01:00:49;-0.50;99.00
67901;DHT22;54700;51.796;10.956;2022-12-10T01:03:16;-0.50;99.00
67901;DHT22;54700;51.796;10.956;2022-12-10T01:05:43;-0.50;99.10
67901;DHT22;54700;51.796;10.956;2022-12-10T01:08:10;-0.50;99.20
67901;DHT22;54700;51.796;10.956;2022-12-10T01:10:38;-0.50;99.10
67901;DHT22;54700;51.796;10.956;2022-12-10T01:13:05;-0.50;98.80
67901;DHT22;54700;51.796;10.956;2022-12-10T01:15:32;-0.50;98.60
67901;DHT22;54700;51.796;10.956;2022-12-10T01:18:03;-0.50;98.50
67901;DHT22;54700;51.796;10.956;2022-12-10T01:20:33;-0.50;98.50
67901;DHT22;54700;51.796;10.956;2022-12-10T01:23:01;-0.50;98.50
67901;DHT22;54700;51.796;10.956;2022-12-10T01:25:28;-0.60;98.50
67901;DHT22;54700;51.796;10.956;2022-12-10T01:27:56;-0.60;98.40
67901;DHT22;54700;51.796;10.956;2022-12-10T01:30:23;-0.60;98.50
67901;DHT22;54700;51.796;10.956;2022-12-10T01:32:50;-0.60;98.40
67901;DHT22;54700;51.796;10.956;2022-12-10T01:35:16;-0.60;98.50
67901;DHT22;54700;51.796;10.956;2022-12-10T01:37:43;-0.60;98.50
67901;DHT22;54700;51.796;10.956;2022-12-10T01:40:11;-0.50;98.70
67901;DHT22;54700;51.796;10.956;2022-12-10T01:42:37;-0.50;98.70
67901;DHT22;54700;51.796;10.956;2022-12-10T01:45:10;-0.50;98.50
67901;DHT22;54700;51.796;10.956;2022-12-10T01:47:39;-0.50;98.20
67901;DHT22;54700;51.796;10.956;2022-12-10T01:50:07;-0.50;98.20
67901;DHT22;54700;51.796;10.956;2022-12-10T01:52:34;-0.50;98.60
67901;DHT22;54700;51.796;10.956;2022-12-10T01:55:06;-0.50;97.90
67901;DHT22;54700;51.796;10.956;2022-12-10T01:57:35;-0.50;97.90
67901;DHT22;54700;51.796;10.956;2022-12-10T02:00:03;-0.50;98.20
67901;DHT22;54700;51.796;10.956;2022-12-10T02:02:37;-0.50;98.30
67901;DHT22;54700;51.796;10.956;2022-12-10T02:05:18;-0.50;98.50
67901;DHT22;54700;51.796;10.956;2022-12-10T02:07:57;-0.50;98.10
67901;DHT22;54700;51.796;10.956;2022-12-10T02:10:35;-0.50;98.20
67901;DHT22;54700;51.796;10.956;2022-12-10T02:13:10;-0.40;98.20
67901;DHT22;54700;51.796;10.956;2022-12-10T02:15:44;-0.40;98.00
67901;DHT22;54700;51.796;10.956;2022-12-10T02:18:18;-0.40;97.60
67901;DHT22;54700;51.796;10.956;2022-12-10T02:20:49;-0.40;97.20
67901;DHT22;54700;51.796;10.956;2022-12-10T02:23:20;-0.40;97.30
67901;DHT22;54700;51.796;10.956;2022-12-10T02:25:57;-0.50;97.50
67901;DHT22;54700;51.796;10.956;2022-12-10T02:28:31;-0.40;97.50
67901;DHT22;54700;51.796;10.956;2022-12-10T02:31:05;-0.40;97.60
67901;DHT22;54700;51.796;10.956;2022-12-10T02:33:37;-0.40;97.50
67901;DHT22;54700;51.796;10.956;2022-12-10T02:36:08;-0.50;97.30
67901;DHT22;54700;51.796;10.956;2022-12-10T02:38:37;-0.50;97.20
67901;DHT22;54700;51.796;10.956;2022-12-10T02:41:08;-0.50;97.20
67901;DHT22;54700;51.796;10.956;2022-12-10T02:43:39;-0.50;97.10
67901;DHT22;54700;51.796;10.956;2022-12-10T02:46:08;-0.50;97.30
67901;DHT22;54700;51.796;10.956;2022-12-10T02:48:35;-0.50;97.00
67901;DHT22;54700;51.796;10.956;2022-12-10T02:51:03;-0.60;97.10
67901;DHT22;54700;51.796;10.956;2022-12-10T02:53:30;-0.60;97.50
67901;DHT22;54700;51.796;10.956;2022-12-10T02:56:03;-0.60;97.60
67901;DHT22;54700;51.796;10.956;2022-12-10T02:58:41;-0.60;98.00
67901;DHT22;54700;51.796;10.956;2022-12-10T03:01:19;-0.50;97.80
67901;DHT22;54700;51.796;10.956;2022-12-10T03:03:53;-0.50;97.70
67901;DHT22;54700;51.796;10.956;2022-12-10T03:06:27;-0.50;97.60
67901;DHT22;54700;51.796;10.956;2022-12-10T03:08:59;-0.50;97.00
67901;DHT22;54700;51.796;10.956;2022-12-10T03:11:30;-0.50;97.00
67901;DHT22;54700;51.796;10.956;2022-12-10T03:13:58;-0.60;97.10
67901;DHT22;54700;51.796;10.956;2022-12-10T03:16:31;-0.60;97.30
67901;DHT22;54700;51.796;10.956;2022-12-10T03:19:02;-0.60;97.30
67901;DHT22;54700;51.796;10.956;2022-12-10T03:21:37;-0.60;97.30
67901;DHT22;54700;51.796;10.956;2022-12-10T03:24:07;-0.60;97.40
67901;DHT22;54700;51.796;10.956;2022-12-10T03:26:35;-0.60;97.50
67901;DHT22;54700;51.796;10.956;2022-12-10T03:29:04;-0.60;97.40
67901;DHT22;54700;51.796;10.956;2022-12-10T03:31:35;-0.60;97.40
67901;DHT22;54700;51.796;10.956;2022-12-10T03:34:05;-0.60;97.50
67901;DHT22;54700;51.796;10.956;2022-12-10T03:36:33;-0.60;97.10
67901;DHT22;54700;51.796;10.956;2022-12-10T03:39:01;-0.60;96.80
67901;DHT22;54700;51.796;10.956;2022-12-10T03:41:28;-0.70;96.70
67901;DHT22;54700;51.796;10.956;2022-12-10T03:43:58;-0.70;97.30
67901;DHT22;54700;51.796;10.956;2022-12-10T03:46:26;-0.80;97.30
67901;DHT22;54700;51.796;10.956;2022-12-10T03:48:57;-0.80;97.60
67901;DHT22;54700;51.796;10.956;2022-12-10T03:51:25;-0.70;97.70
67901;DHT22;54700;51.796;10.956;2022-12-10T03:53:52;-0.70;97.80
67901;DHT22;54700;51.796;10.956;2022-12-10T03:56:20;-0.70;97.70
67901;DHT22;54700;51.796;10.956;2022-12-10T03:58:47;-0.80;97.80
67901;DHT22;54700;51.796;10.956;2022-12-10T04:01:20;-0.80;97.80
67901;DHT22;54700;51.796;10.956;2022-12-10T04:03:47;-0.70;98.20
67901;DHT22;54700;51.796;10.956;2022-12-10T04:06:17;-0.70;98.20
67901;DHT22;54700;51.796;10.956;2022-12-10T04:08:45;-0.60;98.10
67901;DHT22;54700;51.796;10.956;2022-12-10T04:11:13;-0.60;98.00
67901;DHT22;54700;51.796;10.956;2022-12-10T04:13:41;-0.60;98.10
67901;DHT22;54700;51.796;10.956;2022-12-10T04:16:27;-0.60;97.60
67901;DHT22;54700;51.796;10.956;2022-12-10T04:18:58;-0.60;97.60
67901;DHT22;54700;51.796;10.956;2022-12-10T04:21:28;-0.70;97.40
67901;DHT22;54700;51.796;10.956;2022-12-10T04:24:14;-0.70;97.30
67901;DHT22;54700;51.796;10.956;2022-12-10T04:27:01;-0.70;97.60
67901;DHT22;54700;51.796;10.956;2022-12-10T04:29:31;-0.80;97.60
67901;DHT22;54700;51.796;10.956;2022-12-10T04:31:58;-0.80;97.70
67901;DHT22;54700;51.796;10.956;2022-12-10T04:34:25;-0.80;97.50
67901;DHT22;54700;51.796;10.956;2022-12-10T04:36:53;-0.80;97.60
67901;DHT22;54700;51.796;10.956;2022-12-10T04:39:20;-0.80;98.00
67901;DHT22;54700;51.796;10.956;2022-12-10T04:41:48;-0.80;97.80
67901;DHT22;54700;51.796;10.956;2022-12-10T04:44:15;-0.80;97.20
67901;DHT22;54700;51.796;10.956;2022-12-10T04:46:43;-0.90;97.10
67901;DHT22;54700;51.796;10.956;2022-12-10T04:49:10;-0.90;96.90
67901;DHT22;54700;51.796;10.956;2022-12-10T04:51:38;-0.90;96.70
67901;DHT22;54700;51.796;10.956;2022-12-10T04:54:06;-1.00;97.00
67901;DHT22;54700;51.796;10.956;2022-12-10T04:56:34;-1.00;97.20
67901;DHT22;54700;51.796;10.956;2022-12-10T04:59:02;-1.00;97.20
67901;DHT22;54700;51.796;10.956;2022-12-10T05:01:29;-1.00;97.30
67901;DHT22;54700;51.796;10.956;2022-12-10T05:03:57;-1.00;97.40
67901;DHT22;54700;51.796;10.956;2022-12-10T05:06:25;-1.00;97.40
67901;DHT22;54700;51.796;10.956;2022-12-10T05:08:52;-1.00;97.40
67901;DHT22;54700;51.796;10.956;2022-12-10T05:11:21;-1.00;97.30
67901;DHT22;54700;51.796;10.956;2022-12-10T05:13:49;-1.00;97.40
67901;DHT22;54700;51.796;10.956;2022-12-10T05:16:18;-0.90;97.30
67901;DHT22;54700;51.796;10.956;2022-12-10T05:18:47;-1.00;97.60
67901;DHT22;54700;51.796;10.956;2022-12-10T05:21:15;-0.90;97.50
67901;DHT22;54700;51.796;10.956;2022-12-10T05:23:44;-0.90;97.30
67901;DHT22;54700;51.796;10.956;2022-12-10T05:26:11;-0.90;97.30
67901;DHT22;54700;51.796;10.956;2022-12-10T05:28:41;-1.00;97.00
67901;DHT22;54700;51.796;10.956;2022-12-10T05:31:11;-1.00;97.20
67901;DHT22;54700;51.796;10.956;2022-12-10T05:33:39;-1.00;97.30
67901;DHT22;54700;51.796;10.956;2022-12-10T05:36:06;-1.00;97.20
67901;DHT22;54700;51.796;10.956;2022-12-10T05:38:35;-1.00;97.60
67901;DHT22;54700;51.796;10.956;2022-12-10T05:41:02;-1.00;97.80
67901;DHT22;54700;51.796;10.956;2022-12-10T05:43:29;-0.90;97.40
67901;DHT22;54700;51.796;10.956;2022-12-10T05:46:00;-0.90;97.30
67901;DHT22;54700;51.796;10.956;2022-12-10T05:48:27;-0.90;97.40
67901;DHT22;54700;51.796;10.956;2022-12-10T05:50:54;-0.90;97.20
67901;DHT22;54700;51.796;10.956;2022-12-10T05:53:22;-0.90;97.40
67901;DHT22;54700;51.796;10.956;2022-12-10T05:55:56;-0.90;97.30
67901;DHT22;54700;51.796;10.956;2022-12-10T05:58:26;-0.90;97.40
67901;DHT22;54700;51.796;10.956;2022-12-10T06:00:55;-0.90;97.00
67901;DHT22;54700;51.796;10.956;2022-12-10T06:03:26;-1.00;97.00
67901;DHT22;54700;51.796;10.956;2022-12-10T06:05:53;-1.00;97.10
67901;DHT22;54700;51.796;10.956;2022-12-10T06:08:20;-1.00;97.30
67901;DHT22;54700;51.796;10.956;2022-12-10T06:10:47;-1.00;97.20
67901;DHT22;54700;51.796;10.956;2022-12-10T06:13:14;-1.00;97.30
67901;DHT22;54700;51.796;10.956;2022-12-10T06:15:52;-1.00;97.40
67901;DHT22;54700;51.796;10.956;2022-12-10T06:18:19;-1.00;97.70
67901;DHT22;54700;51.796;10.956;2022-12-10T06:20:47;-0.90;97.80
67901;DHT22;54700;51.796;10.956;2022-12-10T06:23:17;-0.90;97.60
67901;DHT22;54700;51.796;10.956;2022-12-10T06:25:44;-0.90;97.70
67901;DHT22;54700;51.796;10.956;2022-12-10T06:28:11;-0.90;97.90
67901;DHT22;54700;51.796;10.956;2022-12-10T06:30:38;-0.90;97.50
67901;DHT22;54700;51.796;10.956;2022-12-10T06:33:05;-0.90;97.90
67901;DHT22;54700;51.796;10.956;2022-12-10T06:35:36;-0.80;97.40
67901;DHT22;54700;51.796;10.956;2022-12-10T06:38:05;-0.90;97.00
67901;DHT22;54700;51.796;10.956;2022-12-10T06:40:32;-0.90;96.90
67901;DHT22;54700;51.796;10.956;2022-12-10T06:42:59;-1.00;97.00
67901;DHT22;54700;51.796;10.956;2022-12-10T06:45:26;-1.00;97.20
67901;DHT22;54700;51.796;10.956;2022-12-10T06:47:53;-1.00;97.10
67901;DHT22;54700;51.796;10.956;2022-12-10T06:50:20;-1.00;97.60
67901;DHT22;54700;51.796;10.956;2022-12-10T06:52:47;-1.00;97.30
67901;DHT22;54700;51.796;10.956;2022-12-10T06:55:17;-1.10;97.20
67901;DHT22;54700;51.796;10.956;2022-12-10T06:57:44;-1.10;97.50
67901;DHT22;54700;51.796;10.956;2022-12-10T07:00:12;-1.10;97.60
67901;DHT22;54700;51.796;10.956;2022-12-10T07:02:40;-1.00;97.90
67901;DHT22;54700;51.796;10.956;2022-12-10T07:05:07;-1.10;97.50
67901;DHT22;54700;51.796;10.956;2022-12-10T07:07:34;-1.10;97.40
67901;DHT22;54700;51.796;10.956;2022-12-10T07:10:02;-1.10;97.50
67901;DHT22;54700;51.796;10.956;2022-12-10T07:12:32;-1.10;97.80
67901;DHT22;54700;51.796;10.956;2022-12-10T07:14:59;-1.10;98.00
67901;DHT22;54700;51.796;10.956;2022-12-10T07:17:26;-1.00;97.60
67901;DHT22;54700;51.796;10.956;2022-12-10T07:19:53;-1.00;97.30
67901;DHT22;54700;51.796;10.956;2022-12-10T07:22:20;-1.00;97.30
67901;DHT22;54700;51.796;10.956;2022-12-10T07:24:47;-1.00;97.50
67901;DHT22;54700;51.796;10.956;2022-12-10T07:27:15;-1.00;97.30
67901;DHT22;54700;51.796;10.956;2022-12-10T07:29:44;-1.00;97.30
67901;DHT22;54700;51.796;10.956;2022-12-10T07:32:11;-1.00;97.30
67901;DHT22;54700;51.796;10.956;2022-12-10T07:34:41;-1.00;97.40
67901;DHT22;54700;51.796;10.956;2022-12-10T07:37:08;-0.90;97.20
67901;DHT22;54700;51.796;10.956;2022-12-10T07:39:35;-1.00;96.70
67901;DHT22;54700;51.796;10.956;2022-12-10T07:42:02;-1.00;96.50
67901;DHT22;54700;51.796;10.956;2022-12-10T07:44:29;-1.00;97.40
67901;DHT22;54700;51.796;10.956;2022-12-10T07:46:58;-1.00;97.20
67901;DHT22;54700;51.796;10.956;2022-12-10T07:49:25;-0.90;97.00
67901;DHT22;54700;51.796;10.956;2022-12-10T07:51:52;-0.90;96.90
67901;DHT22;54700;51.796;10.956;2022-12-10T07:54:19;-0.90;96.40
67901;DHT22;54700;51.796;10.956;2022-12-10T07:56:46;-0.90;96.50
67901;DHT22;54700;51.796;10.956;2022-12-10T07:59:13;-0.90;96.60
67901;DHT22;54700;51.796;10.956;2022-12-10T08:01:40;-0.90;96.50
67901;DHT22;54700;51.796;10.956;2022-12-10T08:04:09;-0.80;96.50
67901;DHT22;54700;51.796;10.956;2022-12-10T08:06:35;-0.80;96.60
67901;DHT22;54700;51.796;10.956;2022-12-10T08:09:02;-0.80;96.40
67901;DHT22;54700;51.796;10.956;2022-12-10T08:11:29;-0.70;95.90
67901;DHT22;54700;51.796;10.956;2022-12-10T08:13:57;-0.70;95.70
67901;DHT22;54700;51.796;10.956;2022-12-10T08:16:25;-0.70;95.20
67901;DHT22;54700;51.796;10.956;2022-12-10T08:18:54;-0.80;95.60
67901;DHT22;54700;51.796;10.956;2022-12-10T08:21:24;-0.70;95.70
67901;DHT22;54700;51.796;10.956;2022-12-10T08:23:53;-0.70;95.80
67901;DHT22;54700;51.796;10.956;2022-12-10T08:26:21;-0.70;95.50
67901;DHT22;54700;51.796;10.956;2022-12-10T08:28:51;-0.60;95.10
67901;DHT22;54700;51.796;10.956;2022-12-10T08:31:19;-0.70;95.10
67901;DHT22;54700;51.796;10.956;2022-12-10T08:33:48;-0.60;94.80
67901;DHT22;54700;51.796;10.956;2022-12-10T08:36:16;-0.70;94.50
67901;DHT22;54700;51.796;10.956;2022-12-10T08:38:45;-0.60;94.60
67901;DHT22;54700;51.796;10.956;2022-12-10T08:41:13;-0.60;94.50
67901;DHT22;54700;51.796;10.956;2022-12-10T08:43:41;-0.60;94.80
67901;DHT22;54700;51.796;10.956;2022-12-10T08:46:09;-0.60;94.00
67901;DHT22;54700;51.796;10.956;2022-12-10T08:48:37;-0.60;93.90
67901;DHT22;54700;51.796;10.956;2022-12-10T08:51:05;-0.60;94.00
67901;DHT22;54700;51.796;10.956;2022-12-10T08:53:33;-0.60;94.30
67901;DHT22;54700;51.796;10.956;2022-12-10T08:56:02;-0.60;93.50
67901;DHT22;54700;51.796;10.956;2022-12-10T08:58:29;-0.60;93.60
67901;DHT22;54700;51.796;10.956;2022-12-10T09:00:56;-0.60;93.60
67901;DHT22;54700;51.796;10.956;2022-12-10T09:03:24;-0.60;93.90
67901;DHT22;54700;51.796;10.956;2022-12-10T09:05:51;-0.60;94.10
67901;DHT22;54700;51.796;10.956;2022-12-10T09:08:18;-0.60;93.90
67901;DHT22;54700;51.796;10.956;2022-12-10T09:10:45;-0.60;93.80
67901;DHT22;54700;51.796;10.956;2022-12-10T09:13:13;-0.60;94.20
67901;DHT22;54700;51.796;10.956;2022-12-10T09:15:40;-0.50;94.40
67901;DHT22;54700;51.796;10.956;2022-12-10T09:18:07;-0.50;94.20
67901;DHT22;54700;51.796;10.956;2022-12-10T09:20:37;-0.50;94.40
67901;DHT22;54700;51.796;10.956;2022-12-10T09:23:04;-0.50;94.90
67901;DHT22;54700;51.796;10.956;2022-12-10T09:25:31;-0.50;95.00
67901;DHT22;54700;51.796;10.956;2022-12-10T09:27:58;-0.60;95.10
67901;DHT22;54700;51.796;10.956;2022-12-10T09:30:26;-0.60;95.60
67901;DHT22;54700;51.796;10.956;2022-12-10T09:32:53;-0.70;96.00
67901;DHT22;54700;51.796;10.956;2022-12-10T09:35:20;-0.70;96.40
67901;DHT22;54700;51.796;10.956;2022-12-10T09:37:47;-0.60;96.50
67901;DHT22;54700;51.796;10.956;2022-12-10T09:40:15;-0.60;96.40
67901;DHT22;54700;51.796;10.956;2022-12-10T09:42:45;-0.70;96.30
67901;DHT22;54700;51.796;10.956;2022-12-10T09:45:19;-0.70;96.30
67901;DHT22;54700;51.796;10.956;2022-12-10T09:48:01;-0.80;96.30
67901;DHT22;54700;51.796;10.956;2022-12-10T09:50:41;-0.80;96.80
67901;DHT22;54700;51.796;10.956;2022-12-10T09:53:15;-0.80;97.20
67901;DHT22;54700;51.796;10.956;2022-12-10T09:55:46;-0.80;97.30
67901;DHT22;54700;51.796;10.956;2022-12-10T09:58:17;-0.80;97.60
67901;DHT22;54700;51.796;10.956;2022-12-10T10:00:49;-0.70;97.10
67901;DHT22;54700;51.796;10.956;2022-12-10T10:03:19;-0.70;96.90
67901;DHT22;54700;51.796;10.956;2022-12-10T10:05:47;-0.70;97.00
67901;DHT22;54700;51.796;10.956;2022-12-10T10:08:18;-0.60;97.00
67901;DHT22;54700;51.796;10.956;2022-12-10T10:10:52;-0.60;96.80
67901;DHT22;54700;51.796;10.956;2022-12-10T10:13:26;-0.60;96.90
67901;DHT22;54700;51.796;10.956;2022-12-10T10:16:00;-0.60;97.00
67901;DHT22;54700;51.796;10.956;2022-12-10T10:18:43;-0.60;96.50
67901;DHT22;54700;51.796;10.956;2022-12-10T10:21:15;-0.60;96.30
67901;DHT22;54700;51.796;10.956;2022-12-10T10:23:47;-0.60;96.40
67901;DHT22;54700;51.796;10.956;2022-12-10T10:26:14;-0.70;96.30
67901;DHT22;54700;51.796;10.956;2022-12-10T10:28:41;-0.60;96.50
67901;DHT22;54700;51.796;10.956;2022-12-10T10:31:16;-0.70;96.30
67901;DHT22;54700;51.796;10.956;2022-12-10T10:33:50;-0.60;96.80
67901;DHT22;54700;51.796;10.956;2022-12-10T10:36:25;-0.70;96.60
67901;DHT22;54700;51.796;10.956;2022-12-10T10:38:55;-0.60;96.90
67901;DHT22;54700;51.796;10.956;2022-12-10T10:41:23;-0.60;96.70
67901;DHT22;54700;51.796;10.956;2022-12-10T10:43:51;-0.60;96.60
67901;DHT22;54700;51.796;10.956;2022-12-10T10:46:28;-0.60;96.60
67901;DHT22;54700;51.796;10.956;2022-12-10T10:49:11;-0.60;96.70
67901;DHT22;54700;51.796;10.956;2022-12-10T10:51:41;-0.60;96.30
67901;DHT22;54700;51.796;10.956;2022-12-10T10:54:10;-0.70;96.00
67901;DHT22;54700;51.796;10.956;2022-12-10T10:56:38;-0.80;95.90
67901;DHT22;54700;51.796;10.956;2022-12-10T10:59:17;-0.80;96.20
67901;DHT22;54700;51.796;10.956;2022-12-10T11:02:00;-0.80;96.50
67901;DHT22;54700;51.796;10.956;2022-12-10T11:04:36;-0.80;96.70
67901;DHT22;54700;51.796;10.956;2022-12-10T11:07:14;-0.80;96.80
67901;DHT22;54700;51.796;10.956;2022-12-10T11:09:46;-0.90;96.70
67901;DHT22;54700;51.796;10.956;2022-12-10T11:12:23;-0.80;96.70
67901;DHT22;54700;51.796;10.956;2022-12-10T11:14:56;-0.80;96.80
67901;DHT22;54700;51.796;10.956;2022-12-10T11:17:25;-0.80;96.60
67901;DHT22;54700;51.796;10.956;2022-12-10T11:19:54;-0.80;96.40
67901;DHT22;54700;51.796;10.956;2022-12-10T11:22:26;-0.80;96.50
67901;DHT22;54700;51.796;10.956;2022-12-10T11:24:55;-0.80;96.40
67901;DHT22;54700;51.796;10.956;2022-12-10T11:27:25;-0.80;96.40
67901;DHT22;54700;51.796;10.956;2022-12-10T11:30:03;-0.80;96.30
67901;DHT22;54700;51.796;10.956;2022-12-10T11:32:39;-0.70;96.10
67901;DHT22;54700;51.796;10.956;2022-12-10T11:35:24;-0.80;95.90
67901;DHT22;54700;51.796;10.956;2022-12-10T11:38:09;-0.80;95.70
67901;DHT22;54700;51.796;10.956;2022-12-10T11:40:47;-0.80;95.80
67901;DHT22;54700;51.796;10.956;2022-12-10T11:43:23;-0.70;95.80
67901;DHT22;54700;51.796;10.956;2022-12-10T11:46:05;-0.70;95.50
67901;DHT22;54700;51.796;10.956;2022-12-10T11:48:49;-0.80;95.30
67901;DHT22;54700;51.796;10.956;2022-12-10T11:51:24;-0.80;95.10
67901;DHT22;54700;51.796;10.956;2022-12-10T11:54:03;-0.80;95.40
67901;DHT22;54700;51.796;10.956;2022-12-10T11:56:43;-0.90;95.60
67901;DHT22;54700;51.796;10.956;2022-12-10T11:59:14;-0.80;95.70
67901;DHT22;54700;51.796;10.956;2022-12-10T12:01:51;-0.80;95.70
67901;DHT22;54700;51.796;10.956;2022-12-10T12:04:33;-0.70;95.80
67901;DHT22;54700;51.796;10.956;2022-12-10T12:07:20;-0.70;95.70
67901;DHT22;54700;51.796;10.956;2022-12-10T12:10:05;-0.70;95.20
67901;DHT22;54700;51.796;10.956;2022-12-10T12:13:10;-0.80;95.10
67901;DHT22;54700;51.796;10.956;2022-12-10T12:15:42;-0.90;95.40
67901;DHT22;54700;51.796;10.956;2022-12-10T12:18:15;-0.90;95.80
67901;DHT22;54700;51.796;10.956;2022-12-10T12:20:49;-0.90;95.70
67901;DHT22;54700;51.796;10.956;2022-12-10T12:23:19;-0.90;95.60
67901;DHT22;54700;51.796;10.956;2022-12-10T12:25:51;-1.00;95.60
67901;DHT22;54700;51.796;10.956;2022-12-10T12:28:24;-1.00;95.80
67901;DHT22;54700;51.796;10.956;2022-12-10T12:30:58;-1.00;95.70
67901;DHT22;54700;51.796;10.956;2022-12-10T12:33:29;-0.90;95.80
67901;DHT22;54700;51.796;10.956;2022-12-10T12:36:04;-0.90;95.50
67901;DHT22;54700;51.796;10.956;2022-12-10T12:38:38;-0.90;95.50
67901;DHT22;54700;51.796;10.956;2022-12-10T12:41:11;-0.90;95.70
67901;DHT22;54700;51.796;10.956;2022-12-10T12:43:44;-0.80;95.50
67901;DHT22;54700;51.796;10.956;2022-12-10T12:46:19;-0.80;95.40
67901;DHT22;54700;51.796;10.956;2022-12-10T12:48:55;-0.80;95.30
67901;DHT22;54700;51.796;10.956;2022-12-10T12:51:29;-0.80;95.10
67901;DHT22;54700;51.796;10.956;2022-12-10T12:53:59;-0.90;94.80
67901;DHT22;54700;51.796;10.956;2022-12-10T12:56:42;-0.90;95.10
67901;DHT22;54700;51.796;10.956;2022-12-10T12:59:40;-0.90;95.50
67901;DHT22;54700;51.796;10.956;2022-12-10T13:02:23;-0.90;95.60
67901;DHT22;54700;51.796;10.956;2022-12-10T13:05:08;-0.90;95.30
67901;DHT22;54700;51.796;10.956;2022-12-10T13:07:41;-0.90;95.10
67901;DHT22;54700;51.796;10.956;2022-12-10T13:10:24;-0.90;95.50
67901;DHT22;54700;51.796;10.956;2022-12-10T13:13:05;-1.00;95.60
67901;DHT22;54700;51.796;10.956;2022-12-10T13:15:43;-1.00;95.80
67901;DHT22;54700;51.796;10.956;2022-12-10T13:18:21;-1.00;96.00
67901;DHT22;54700;51.796;10.956;2022-12-10T13:23:48;-0.90;95.70
67901;DHT22;54700;51.796;10.956;2022-12-10T13:26:22;-0.90;95.90
67901;DHT22;54700;51.796;10.956;2022-12-10T13:28:51;-0.90;96.00
67901;DHT22;54700;51.796;10.956;2022-12-10T13:31:22;-0.90;96.10
67901;DHT22;54700;51.796;10.956;2022-12-10T13:34:14;-0.90;96.10
67901;DHT22;54700;51.796;10.956;2022-12-10T13:39:47;-1.00;95.90
67901;DHT22;54700;51.796;10.956;2022-12-10T13:42:30;-1.10;96.20
67901;DHT22;54700;51.796;10.956;2022-12-10T13:45:24;-1.10;96.30
67901;DHT22;54700;51.796;10.956;2022-12-10T13:50:53;-1.10;96.70
67901;DHT22;54700;51.796;10.956;2022-12-10T13:53:39;-1.10;96.80
67901;DHT22;54700;51.796;10.956;2022-12-10T13:56:16;-1.10;96.60
67901;DHT22;54700;51.796;10.956;2022-12-10T13:58:50;-1.10;96.70
67901;DHT22;54700;51.796;10.956;2022-12-10T14:01:30;-1.20;96.70
67901;DHT22;54700;51.796;10.956;2022-12-10T14:06:57;-1.20;96.80
67901;DHT22;54700;51.796;10.956;2022-12-10T14:09:25;-1.20;96.80
67901;DHT22;54700;51.796;10.956;2022-12-10T14:12:01;-1.20;97.00
67901;DHT22;54700;51.796;10.956;2022-12-10T14:14:33;-1.10;97.10
67901;DHT22;54700;51.796;10.956;2022-12-10T14:17:03;-1.10;97.00
67901;DHT22;54700;51.796;10.956;2022-12-10T14:19:33;-1.10;97.10
67901;DHT22;54700;51.796;10.956;2022-12-10T14:22:03;-1.10;96.80
67901;DHT22;54700;51.796;10.956;2022-12-10T14:24:34;-1.10;96.80
67901;DHT22;54700;51.796;10.956;2022-12-10T14:27:12;-1.10;96.80
67901;DHT22;54700;51.796;10.956;2022-12-10T14:29:43;-1.20;96.80
67901;DHT22;54700;51.796;10.956;2022-12-10T14:32:12;-1.20;97.00
67901;DHT22;54700;51.796;10.956;2022-12-10T14:34:41;-1.20;97.00
67901;DHT22;54700;51.796;10.956;2022-12-10T14:37:10;-1.20;96.80
67901;DHT22;54700;51.796;10.956;2022-12-10T14:39:40;-1.10;97.00
67901;DHT22;54700;51.796;10.956;2022-12-10T14:42:12;-1.10;96.90
67901;DHT22;54700;51.796;10.956;2022-12-10T14:44:42;-1.10;96.80
67901;DHT22;54700;51.796;10.956;2022-12-10T14:47:15;-1.00;97.20
67901;DHT22;54700;51.796;10.956;2022-12-10T14:49:44;-1.00;96.80
67901;DHT22;54700;51.796;10.956;2022-12-10T14:52:16;-1.00;96.80
67901;DHT22;54700;51.796;10.956;2022-12-10T14:54:45;-1.00;96.40
67901;DHT22;54700;51.796;10.956;2022-12-10T14:57:16;-1.00;96.10
67901;DHT22;54700;51.796;10.956;2022-12-10T14:59:49;-1.10;96.10
67901;DHT22;54700;51.796;10.956;2022-12-10T15:02:22;-1.10;96.20
67901;DHT22;54700;51.796;10.956;2022-12-10T15:04:54;-1.10;96.00
67901;DHT22;54700;51.796;10.956;2022-12-10T15:07:24;-1.10;96.10
67901;DHT22;54700;51.796;10.956;2022-12-10T15:09:53;-1.10;96.20
67901;DHT22;54700;51.796;10.956;2022-12-10T15:12:28;-1.00;96.00
67901;DHT22;54700;51.796;10.956;2022-12-10T15:14:59;-1.00;96.00
67901;DHT22;54700;51.796;10.956;2022-12-10T15:17:35;-1.00;95.90
67901;DHT22;54700;51.796;10.956;2022-12-10T15:20:09;-1.00;95.70
67901;DHT22;54700;51.796;10.956;2022-12-10T15:22:44;-1.00;95.70
67901;DHT22;54700;51.796;10.956;2022-12-10T15:25:26;-1.00;95.70
67901;DHT22;54700;51.796;10.956;2022-12-10T15:27:56;-1.00;95.70
67901;DHT22;54700;51.796;10.956;2022-12-10T15:30:32;-1.00;96.00
67901;DHT22;54700;51.796;10.956;2022-12-10T15:33:02;-1.00;95.50
67901;DHT22;54700;51.796;10.956;2022-12-10T15:35:43;-1.10;95.50
67901;DHT22;54700;51.796;10.956;2022-12-10T15:38:11;-1.00;95.90
67901;DHT22;54700;51.796;10.956;2022-12-10T15:40:39;-1.00;96.10
67901;DHT22;54700;51.796;10.956;2022-12-10T15:43:19;-1.00;95.60
67901;DHT22;54700;51.796;10.956;2022-12-10T15:45:51;-1.00;95.60
67901;DHT22;54700;51.796;10.956;2022-12-10T15:48:19;-1.00;95.60
67901;DHT22;54700;51.796;10.956;2022-12-10T15:50:46;-1.00;95.80